createdAt,value
2023-10-22T00:03:12.823Z,12.60
2023-10-22T00:06:36.555Z,12.60
2023-10-22T00:10:02.050Z,12.60
2023-10-22T00:13:28.236Z,12.60
2023-10-22T00:16:52.258Z,12.50
2023-10-22T00:20:16.258Z,12.50
2023-10-22T00:23:40.315Z,12.50
2023-10-22T00:27:06.356Z,12.40
2023-10-22T00:30:33.887Z,12.40
2023-10-22T00:33:58.337Z,12.30
2023-10-22T00:37:22.349Z,12.30
2023-10-22T00:40:46.700Z,12.20
2023-10-22T00:44:12.734Z,12.30
2023-10-22T00:47:38.566Z,12.40
2023-10-22T00:51:02.459Z,12.40
2023-10-22T00:54:27.947Z,12.40
2023-10-22T00:57:52.165Z,12.40
2023-10-22T01:01:18.257Z,12.30
2023-10-22T01:04:42.353Z,12.30
2023-10-22T01:08:07.534Z,12.20
2023-10-22T01:11:31.360Z,12.30
2023-10-22T01:14:56.649Z,12.30
2023-10-22T01:18:22.294Z,12.30
2023-10-22T01:21:55.631Z,12.30
2023-10-22T01:25:21.238Z,12.30
2023-10-22T01:28:45.384Z,12.30
2023-10-22T01:32:09.516Z,12.30
2023-10-22T01:35:33.401Z,12.30
2023-10-22T01:38:59.570Z,12.30
2023-10-22T01:42:24.664Z,12.10
2023-10-22T01:45:48.369Z,12.00
2023-10-22T01:49:12.557Z,11.90
2023-10-22T01:52:36.400Z,11.90
2023-10-22T01:56:00.402Z,11.80
2023-10-22T01:59:25.800Z,11.80
2023-10-22T02:02:50.569Z,11.90
2023-10-22T02:06:16.587Z,12.00
2023-10-22T02:09:40.442Z,12.10
2023-10-22T02:13:04.599Z,12.20
2023-10-22T02:16:29.804Z,12.20
2023-10-22T02:19:54.438Z,12.30
2023-10-22T02:23:21.388Z,12.40
2023-10-22T02:26:45.484Z,12.30
2023-10-22T02:30:10.896Z,12.40
2023-10-22T02:33:36.878Z,12.40
2023-10-22T02:37:02.398Z,12.40
2023-10-22T02:40:26.446Z,12.40
2023-10-22T02:43:50.406Z,12.30
2023-10-22T02:47:14.420Z,12.30
2023-10-22T02:50:40.645Z,12.30
2023-10-22T02:54:05.372Z,12.30
2023-10-22T02:57:29.492Z,12.20
2023-10-22T03:00:53.120Z,12.20
2023-10-22T03:04:17.622Z,12.20
2023-10-22T03:07:43.889Z,12.20
2023-10-22T03:11:10.443Z,12.20
2023-10-22T03:14:36.619Z,12.20
2023-10-22T03:18:00.551Z,12.20
2023-10-22T03:21:26.243Z,12.20
2023-10-22T03:24:52.663Z,12.20
2023-10-22T03:28:16.316Z,12.20
2023-10-22T03:31:40.489Z,12.20
2023-10-22T03:35:07.224Z,12.20
2023-10-22T03:38:31.489Z,12.20
2023-10-22T03:41:58.973Z,12.20
2023-10-22T03:45:25.651Z,12.30
2023-10-22T03:48:51.672Z,12.30
2023-10-22T03:52:15.654Z,12.40
2023-10-22T03:55:39.580Z,12.30
2023-10-22T03:59:04.881Z,12.30
2023-10-22T04:02:28.522Z,12.30
2023-10-22T04:05:57.995Z,12.30
2023-10-22T04:09:21.625Z,12.30
2023-10-22T04:12:45.843Z,12.30
2023-10-22T04:16:16.591Z,12.30
2023-10-22T04:19:40.160Z,12.20
2023-10-22T04:23:04.712Z,12.20
2023-10-22T04:26:30.552Z,12.20
2023-10-22T04:29:54.602Z,12.20
2023-10-22T04:33:20.313Z,12.10
2023-10-22T04:36:44.564Z,12.10
2023-10-22T04:40:09.919Z,12.10
2023-10-22T04:43:33.470Z,12.00
2023-10-22T04:46:57.552Z,12.00
2023-10-22T04:50:22.977Z,12.00
2023-10-22T04:53:46.595Z,12.10
2023-10-22T04:57:10.626Z,12.00
2023-10-22T05:00:34.591Z,12.00
2023-10-22T05:03:58.668Z,12.00
2023-10-22T05:07:23.916Z,12.10
2023-10-22T05:10:47.822Z,12.00
2023-10-22T05:14:14.405Z,12.00
2023-10-22T05:17:39.659Z,12.00
2023-10-22T05:21:05.975Z,12.00
2023-10-22T05:24:32.171Z,12.00
2023-10-22T05:27:55.921Z,12.00
2023-10-22T05:31:21.284Z,12.00
2023-10-22T05:34:45.747Z,12.00
2023-10-22T05:38:09.628Z,12.00
2023-10-22T05:41:35.015Z,12.00
2023-10-22T05:45:04.234Z,12.00
2023-10-22T05:48:28.108Z,11.90
2023-10-22T05:51:52.683Z,12.00
2023-10-22T05:55:16.863Z,11.90
2023-10-22T05:58:45.172Z,11.90
2023-10-22T06:02:08.817Z,11.90
2023-10-22T06:05:32.666Z,11.90
2023-10-22T06:08:56.669Z,12.00
2023-10-22T06:12:20.763Z,12.00
2023-10-22T06:15:46.988Z,12.10
2023-10-22T06:19:10.538Z,12.10
2023-10-22T06:22:35.048Z,12.10
2023-10-22T06:25:58.735Z,12.10
2023-10-22T06:29:22.722Z,12.10
2023-10-22T06:32:48.101Z,12.20
2023-10-22T06:36:19.769Z,12.30
2023-10-22T06:39:43.662Z,12.40
2023-10-22T06:43:07.987Z,12.50
2023-10-22T06:46:31.726Z,12.60
2023-10-22T06:49:58.013Z,12.70
2023-10-22T06:53:21.681Z,12.80
2023-10-22T06:56:45.798Z,12.90
2023-10-22T07:00:18.649Z,12.90
2023-10-22T07:03:45.598Z,12.90
2023-10-22T07:07:13.282Z,12.90
2023-10-22T07:10:45.315Z,12.90
2023-10-22T07:14:10.311Z,12.90
2023-10-22T07:17:34.818Z,12.90
2023-10-22T07:20:58.877Z,13.00
2023-10-22T07:24:24.067Z,13.10
2023-10-22T07:27:49.258Z,13.10
2023-10-22T07:31:13.527Z,13.20
2023-10-22T07:34:37.971Z,13.30
2023-10-22T07:38:01.697Z,13.90
2023-10-22T07:41:27.580Z,14.90
2023-10-22T07:44:52.475Z,14.90
2023-10-22T07:48:16.293Z,14.30
2023-10-22T07:51:40.138Z,14.00
2023-10-22T07:55:03.764Z,14.10
2023-10-22T07:58:28.731Z,14.10
2023-10-22T08:01:52.370Z,14.00
2023-10-22T08:05:17.224Z,13.90
2023-10-22T08:08:41.151Z,14.10
2023-10-22T08:12:06.891Z,14.10
2023-10-22T08:15:32.161Z,13.70
2023-10-22T08:18:55.801Z,13.60
2023-10-22T08:22:20.380Z,13.50
2023-10-22T08:25:52.263Z,13.40
2023-10-22T08:29:15.880Z,13.40
2023-10-22T08:32:45.313Z,13.40
2023-10-22T08:36:09.997Z,13.40
2023-10-22T08:39:33.862Z,13.50
2023-10-22T08:42:58.519Z,13.60
2023-10-22T08:46:22.260Z,13.70
2023-10-22T08:49:50.874Z,13.90
2023-10-22T08:53:15.539Z,14.00
2023-10-22T08:56:39.208Z,14.10
2023-10-22T09:00:03.125Z,14.20
2023-10-22T09:03:29.570Z,14.30
2023-10-22T09:06:55.855Z,14.50
2023-10-22T09:10:27.130Z,14.60
2023-10-22T09:13:50.785Z,14.60
2023-10-22T09:17:18.581Z,14.80
2023-10-22T09:20:43.245Z,14.90
2023-10-22T09:24:08.960Z,15.30
2023-10-22T09:27:33.348Z,16.10
2023-10-22T09:30:58.379Z,16.00
2023-10-22T09:34:27.194Z,15.80
2023-10-22T09:37:52.208Z,15.40
2023-10-22T09:41:29.985Z,15.10
2023-10-22T09:44:53.841Z,15.10
2023-10-22T09:48:17.958Z,15.00
2023-10-22T09:51:42.977Z,15.00
2023-10-22T09:55:09.310Z,15.20
2023-10-22T09:58:36.455Z,15.30
2023-10-22T10:02:01.412Z,15.20
2023-10-22T10:05:26.000Z,15.00
2023-10-22T10:08:50.571Z,15.20
2023-10-22T10:12:17.714Z,15.30
2023-10-22T10:15:42.855Z,15.50
2023-10-22T10:19:09.208Z,15.80
2023-10-22T10:22:40.958Z,16.00
2023-10-22T10:26:32.099Z,15.90
2023-10-22T10:30:17.810Z,15.60
2023-10-22T10:34:04.088Z,15.70
2023-10-22T10:37:27.715Z,15.80
2023-10-22T10:40:52.993Z,16.00
2023-10-22T10:44:16.615Z,16.30
2023-10-22T10:47:41.339Z,16.30
2023-10-22T10:51:19.135Z,16.30
2023-10-22T10:54:42.853Z,15.70
2023-10-22T10:58:06.451Z,15.50
2023-10-22T11:01:30.018Z,15.70
2023-10-22T11:04:54.271Z,15.80
2023-10-22T11:08:21.502Z,15.70
2023-10-22T11:11:57.402Z,15.60
2023-10-22T11:15:21.116Z,15.70
2023-10-22T11:18:55.674Z,15.50
2023-10-22T11:22:19.764Z,15.60
2023-10-22T11:25:44.724Z,15.70
2023-10-22T11:29:08.383Z,15.70
2023-10-22T11:32:32.452Z,15.80
2023-10-22T11:35:56.533Z,15.90
2023-10-22T11:39:34.573Z,15.90
2023-10-22T11:43:16.682Z,15.80
2023-10-22T11:46:41.638Z,15.80
2023-10-22T11:50:05.932Z,15.70
2023-10-22T11:53:30.587Z,15.90
2023-10-22T11:56:54.244Z,15.90
2023-10-22T12:00:19.413Z,16.00
2023-10-22T12:03:43.686Z,16.10
2023-10-22T12:07:07.373Z,16.00
2023-10-22T12:10:31.008Z,15.90
2023-10-22T12:13:54.797Z,15.90
2023-10-22T12:17:22.747Z,16.00
2023-10-22T12:20:47.360Z,16.00
2023-10-22T12:24:24.020Z,16.20
2023-10-22T12:27:50.300Z,16.10
2023-10-22T12:31:13.960Z,16.30
2023-10-22T12:34:39.262Z,16.40
2023-10-22T12:38:02.980Z,16.20
2023-10-22T12:41:26.847Z,16.00
2023-10-22T12:44:50.563Z,16.00
2023-10-22T12:48:14.634Z,16.00
2023-10-22T12:51:39.784Z,16.00
2023-10-22T12:55:03.545Z,16.00
2023-10-22T12:58:27.168Z,15.90
2023-10-22T13:01:50.721Z,15.90
2023-10-22T13:05:14.318Z,15.80
2023-10-22T13:08:39.227Z,15.70
2023-10-22T13:12:02.842Z,15.60
2023-10-22T13:15:26.812Z,15.60
2023-10-22T13:18:50.460Z,15.70
2023-10-22T13:22:14.172Z,15.70
2023-10-22T13:25:39.517Z,15.60
2023-10-22T13:29:07.294Z,15.40
2023-10-22T13:32:31.194Z,15.50
2023-10-22T13:35:56.532Z,15.40
2023-10-22T13:39:20.274Z,15.30
2023-10-22T13:42:45.356Z,15.20
2023-10-22T13:46:09.212Z,15.30
2023-10-22T13:49:33.214Z,15.10
2023-10-22T13:52:57.108Z,15.10
2023-10-22T13:56:20.782Z,15.00
2023-10-22T13:59:45.782Z,15.10
2023-10-22T14:03:09.747Z,15.20
2023-10-22T14:06:33.730Z,15.10
2023-10-22T14:09:57.508Z,15.00
2023-10-22T14:13:21.266Z,14.90
2023-10-22T14:16:46.237Z,15.00
2023-10-22T14:20:10.882Z,14.80
2023-10-22T14:23:34.492Z,14.70
2023-10-22T14:27:10.475Z,14.60
2023-10-22T14:30:37.086Z,14.60
2023-10-22T14:34:02.657Z,14.60
2023-10-22T14:37:26.659Z,14.60
2023-10-22T14:40:50.282Z,14.50
2023-10-22T14:44:13.918Z,14.50
2023-10-22T14:47:37.618Z,14.50
2023-10-22T14:51:03.156Z,14.50
2023-10-22T14:54:26.825Z,14.50
2023-10-22T14:57:50.504Z,14.40
2023-10-22T15:01:14.572Z,14.40
2023-10-22T15:04:38.439Z,14.40
2023-10-22T15:08:03.609Z,14.30
2023-10-22T15:11:27.500Z,14.30
2023-10-22T15:14:51.159Z,14.40
2023-10-22T15:18:15.916Z,14.40
2023-10-22T15:21:39.845Z,14.40
2023-10-22T15:25:05.504Z,14.40
2023-10-22T15:28:29.343Z,14.30
2023-10-22T15:31:53.083Z,14.20
2023-10-22T15:35:16.894Z,14.10
2023-10-22T15:38:40.635Z,14.20
2023-10-22T15:42:06.631Z,14.10
2023-10-22T15:45:32.261Z,14.10
2023-10-22T15:48:56.604Z,14.00
2023-10-22T15:52:20.381Z,13.90
2023-10-22T15:55:43.929Z,13.80
2023-10-22T15:59:09.479Z,13.90
2023-10-22T16:02:33.163Z,14.00
2023-10-22T16:05:57.725Z,13.80
2023-10-22T16:09:21.419Z,13.80
2023-10-22T16:12:45.110Z,13.80
2023-10-22T16:16:10.575Z,13.70
2023-10-22T16:19:34.215Z,13.70
2023-10-22T16:22:58.350Z,13.70
2023-10-22T16:26:22.148Z,13.70
2023-10-22T16:29:45.760Z,13.70
2023-10-22T16:33:11.511Z,13.70
2023-10-22T16:36:35.142Z,13.70
2023-10-22T16:39:59.640Z,13.70
2023-10-22T16:43:23.295Z,13.60
2023-10-22T16:46:46.937Z,13.60
2023-10-22T16:50:12.156Z,13.60
2023-10-22T16:53:35.781Z,13.50
2023-10-22T16:57:01.555Z,13.50
2023-10-22T17:00:25.270Z,13.40
2023-10-22T17:03:48.969Z,13.40
2023-10-22T17:07:14.490Z,13.40
2023-10-22T17:10:41.180Z,13.40
2023-10-22T17:14:05.284Z,13.40
2023-10-22T17:17:29.665Z,13.40
2023-10-22T17:20:53.567Z,13.40
2023-10-22T17:24:21.340Z,13.50
2023-10-22T17:27:45.051Z,13.50
2023-10-22T17:31:14.826Z,13.50
2023-10-22T17:34:38.847Z,13.50
2023-10-22T17:38:02.508Z,13.40
2023-10-22T17:41:27.725Z,13.40
2023-10-22T17:44:51.574Z,13.30
2023-10-22T17:48:15.509Z,13.20
2023-10-22T17:51:39.534Z,13.20
2023-10-22T17:55:03.388Z,13.10
2023-10-22T17:58:28.423Z,13.10
2023-10-22T18:01:52.370Z,13.10
2023-10-22T18:05:16.463Z,13.00
2023-10-22T18:08:40.179Z,13.00
2023-10-22T18:12:05.075Z,12.90
2023-10-22T18:15:30.231Z,12.80
2023-10-22T18:18:57.514Z,12.70
2023-10-22T18:22:24.712Z,12.60
2023-10-22T18:25:59.311Z,12.60
2023-10-22T18:29:25.354Z,12.50
2023-10-22T18:32:50.876Z,12.50
2023-10-22T18:36:17.122Z,12.50
2023-10-22T18:39:45.479Z,12.40
2023-10-22T18:43:11.772Z,12.40
2023-10-22T18:46:39.183Z,12.40
2023-10-22T18:50:07.674Z,12.30
2023-10-22T18:53:34.211Z,12.30
2023-10-22T18:56:58.934Z,12.20
2023-10-22T19:00:24.286Z,12.20
2023-10-22T19:03:49.611Z,12.20
2023-10-22T19:07:17.090Z,12.10
2023-10-22T19:10:41.683Z,12.10
2023-10-22T19:14:10.767Z,12.10
2023-10-22T19:17:38.914Z,12.10
2023-10-22T19:21:04.878Z,12.10
2023-10-22T19:24:38.009Z,12.10
2023-10-22T19:28:12.752Z,12.10
2023-10-22T19:31:42.107Z,12.20
2023-10-22T19:35:08.565Z,12.20
2023-10-22T19:38:37.016Z,12.30
2023-10-22T19:42:07.161Z,12.20
2023-10-22T19:45:35.349Z,12.30
2023-10-22T19:49:01.001Z,12.30
2023-10-22T19:56:18.690Z,12.30
2023-10-22T19:59:45.359Z,12.30
2023-10-22T20:03:09.840Z,12.30
2023-10-22T20:06:36.121Z,12.30
2023-10-22T20:10:00.888Z,12.30
2023-10-22T20:13:28.754Z,12.30
2023-10-22T20:17:01.760Z,12.30
2023-10-22T20:20:34.219Z,12.30
2023-10-22T20:24:07.523Z,12.40
2023-10-22T20:27:33.802Z,12.40
2023-10-22T20:30:57.914Z,12.40
2023-10-22T20:34:31.082Z,12.40
2023-10-22T20:38:04.679Z,12.40
2023-10-22T20:41:32.100Z,12.30
2023-10-22T20:44:55.871Z,12.30
2023-10-22T20:48:36.299Z,12.20
2023-10-22T20:52:01.419Z,12.10
2023-10-22T20:55:24.978Z,12.10
2023-10-22T20:58:48.855Z,12.10
2023-10-22T21:02:12.351Z,12.00
2023-10-22T21:05:35.943Z,12.00
2023-10-22T21:09:01.601Z,12.00
2023-10-22T21:12:25.318Z,12.00
2023-10-22T21:15:49.311Z,12.00
2023-10-22T21:19:13.041Z,12.10
2023-10-22T21:22:36.819Z,12.10
2023-10-22T21:26:08.670Z,12.20
2023-10-22T21:29:32.829Z,12.20
2023-10-22T21:32:58.854Z,12.20
2023-10-22T21:36:23.728Z,12.20
2023-10-22T21:39:47.864Z,12.30
2023-10-22T21:43:13.187Z,12.20
2023-10-22T21:46:36.878Z,12.20
2023-10-22T21:50:02.552Z,12.20
2023-10-22T21:53:26.890Z,12.10
2023-10-22T21:56:50.840Z,12.00
2023-10-22T22:00:24.104Z,12.00
2023-10-22T22:03:47.718Z,11.90
2023-10-22T22:07:11.850Z,11.90
2023-10-22T22:10:35.747Z,11.80
2023-10-22T22:14:19.380Z,11.80
2023-10-22T22:17:50.740Z,11.90
2023-10-22T22:21:14.892Z,11.80
2023-10-22T22:24:41.203Z,11.80
2023-10-22T22:28:05.210Z,11.90
2023-10-22T22:31:31.272Z,11.90
2023-10-22T22:34:56.249Z,12.00
2023-10-22T22:38:22.274Z,12.00
2023-10-22T22:41:46.018Z,12.00
2023-10-22T22:45:13.548Z,12.00
2023-10-22T22:48:37.959Z,12.00
2023-10-22T22:52:09.164Z,12.00
2023-10-22T22:55:33.039Z,12.00
2023-10-22T22:58:56.942Z,12.00
2023-10-22T23:02:23.282Z,12.00
2023-10-22T23:05:46.912Z,12.00
2023-10-22T23:09:12.363Z,12.00
2023-10-22T23:12:35.994Z,12.10
2023-10-22T23:16:00.128Z,12.10
2023-10-22T23:19:24.507Z,12.00
2023-10-22T23:22:49.019Z,12.00
2023-10-22T23:26:14.308Z,12.00
2023-10-22T23:29:37.995Z,12.10
2023-10-22T23:33:02.066Z,12.00
2023-10-22T23:36:26.049Z,12.00
2023-10-22T23:39:51.062Z,12.00
2023-10-22T23:43:16.317Z,12.00
2023-10-22T23:46:40.695Z,12.00
2023-10-22T23:50:05.761Z,12.00
2023-10-22T23:53:29.979Z,12.00
2023-10-22T23:56:53.965Z,12.00
